sensor_id;sensor_type;location;lat;lon;timestamp;P1;durP1;ratioP1;P2;durP2;ratioP2
23258;SDS011;11798;51.528;7.240;2023-03-23T00:01:48;8.93;;;5.60;;
23258;SDS011;11798;51.528;7.240;2023-03-23T00:04:15;8.83;;;5.40;;
23258;SDS011;11798;51.528;7.240;2023-03-23T00:06:41;10.60;;;5.50;;
23258;SDS011;11798;51.528;7.240;2023-03-23T00:09:10;12.10;;;5.43;;
23258;SDS011;11798;51.528;7.240;2023-03-23T00:11:38;9.13;;;5.07;;
23258;SDS011;11798;51.528;7.240;2023-03-23T00:14:06;8.97;;;5.20;;
23258;SDS011;11798;51.528;7.240;2023-03-23T00:16:39;7.63;;;4.23;;
23258;SDS011;11798;51.528;7.240;2023-03-23T00:19:11;9.27;;;4.37;;
23258;SDS011;11798;51.528;7.240;2023-03-23T00:21:40;9.20;;;4.93;;
23258;SDS011;11798;51.528;7.240;2023-03-23T00:24:14;8.13;;;4.83;;
23258;SDS011;11798;51.528;7.240;2023-03-23T00:26:42;6.27;;;4.50;;
23258;SDS011;11798;51.528;7.240;2023-03-23T00:29:20;6.37;;;4.27;;
23258;SDS011;11798;51.528;7.240;2023-03-23T00:31:47;7.87;;;4.30;;
23258;SDS011;11798;51.528;7.240;2023-03-23T00:34:18;6.30;;;3.90;;
23258;SDS011;11798;51.528;7.240;2023-03-23T00:36:50;6.73;;;4.00;;
23258;SDS011;11798;51.528;7.240;2023-03-23T00:39:18;7.43;;;3.67;;
23258;SDS011;11798;51.528;7.240;2023-03-23T00:41:45;10.57;;;4.40;;
23258;SDS011;11798;51.528;7.240;2023-03-23T00:44:14;6.07;;;3.50;;
23258;SDS011;11798;51.528;7.240;2023-03-23T00:46:45;5.90;;;3.77;;
23258;SDS011;11798;51.528;7.240;2023-03-23T00:49:14;4.27;;;3.43;;
23258;SDS011;11798;51.528;7.240;2023-03-23T00:51:42;10.83;;;3.80;;
23258;SDS011;11798;51.528;7.240;2023-03-23T00:54:08;5.07;;;3.40;;
23258;SDS011;11798;51.528;7.240;2023-03-23T00:56:35;7.87;;;3.60;;
23258;SDS011;11798;51.528;7.240;2023-03-23T00:59:02;4.90;;;3.33;;
23258;SDS011;11798;51.528;7.240;2023-03-23T01:01:27;6.40;;;3.20;;
23258;SDS011;11798;51.528;7.240;2023-03-23T01:03:53;6.67;;;3.77;;
23258;SDS011;11798;51.528;7.240;2023-03-23T01:06:29;4.37;;;3.10;;
23258;SDS011;11798;51.528;7.240;2023-03-23T01:09:14;5.07;;;3.27;;
23258;SDS011;11798;51.528;7.240;2023-03-23T01:11:42;5.23;;;3.00;;
23258;SDS011;11798;51.528;7.240;2023-03-23T01:14:08;7.53;;;2.97;;
23258;SDS011;11798;51.528;7.240;2023-03-23T01:16:35;6.00;;;3.57;;
23258;SDS011;11798;51.528;7.240;2023-03-23T01:19:00;5.90;;;3.00;;
23258;SDS011;11798;51.528;7.240;2023-03-23T01:21:26;4.80;;;3.17;;
23258;SDS011;11798;51.528;7.240;2023-03-23T01:23:52;7.33;;;3.33;;
23258;SDS011;11798;51.528;7.240;2023-03-23T01:26:19;4.57;;;3.60;;
23258;SDS011;11798;51.528;7.240;2023-03-23T01:28:47;5.97;;;3.50;;
23258;SDS011;11798;51.528;7.240;2023-03-23T01:31:18;4.67;;;3.03;;
23258;SDS011;11798;51.528;7.240;2023-03-23T01:33:45;6.37;;;3.20;;
23258;SDS011;11798;51.528;7.240;2023-03-23T01:36:12;6.40;;;3.30;;
23258;SDS011;11798;51.528;7.240;2023-03-23T01:38:44;3.73;;;3.10;;
23258;SDS011;11798;51.528;7.240;2023-03-23T01:41:11;4.83;;;2.80;;
23258;SDS011;11798;51.528;7.240;2023-03-23T01:43:56;5.13;;;2.90;;
23258;SDS011;11798;51.528;7.240;2023-03-23T01:46:27;5.73;;;2.87;;
23258;SDS011;11798;51.528;7.240;2023-03-23T01:48:55;3.43;;;3.10;;
23258;SDS011;11798;51.528;7.240;2023-03-23T01:51:23;3.57;;;2.90;;
23258;SDS011;11798;51.528;7.240;2023-03-23T01:53:57;5.10;;;3.07;;
23258;SDS011;11798;51.528;7.240;2023-03-23T01:56:28;3.70;;;2.83;;
23258;SDS011;11798;51.528;7.240;2023-03-23T01:59:03;5.50;;;2.40;;
23258;SDS011;11798;51.528;7.240;2023-03-23T02:01:29;3.93;;;2.30;;
23258;SDS011;11798;51.528;7.240;2023-03-23T02:03:55;3.50;;;2.23;;
23258;SDS011;11798;51.528;7.240;2023-03-23T02:06:22;3.80;;;2.43;;
23258;SDS011;11798;51.528;7.240;2023-03-23T02:08:48;2.93;;;2.40;;
23258;SDS011;11798;51.528;7.240;2023-03-23T02:11:17;3.33;;;2.10;;
23258;SDS011;11798;51.528;7.240;2023-03-23T02:13:44;3.70;;;2.47;;
23258;SDS011;11798;51.528;7.240;2023-03-23T02:19:20;2.50;;;2.03;;
23258;SDS011;11798;51.528;7.240;2023-03-23T02:26:57;3.63;;;2.17;;
23258;SDS011;11798;51.528;7.240;2023-03-23T02:38:04;5.43;;;2.77;;
23258;SDS011;11798;51.528;7.240;2023-03-23T02:40:44;3.00;;;2.60;;
23258;SDS011;11798;51.528;7.240;2023-03-23T02:43:13;3.53;;;2.50;;
23258;SDS011;11798;51.528;7.240;2023-03-23T02:45:42;4.43;;;2.67;;
23258;SDS011;11798;51.528;7.240;2023-03-23T02:48:10;3.30;;;3.00;;
23258;SDS011;11798;51.528;7.240;2023-03-23T02:50:38;4.00;;;2.60;;
23258;SDS011;11798;51.528;7.240;2023-03-23T02:53:07;3.43;;;2.93;;
23258;SDS011;11798;51.528;7.240;2023-03-23T02:55:36;5.80;;;3.93;;
23258;SDS011;11798;51.528;7.240;2023-03-23T02:58:07;3.30;;;3.00;;
23258;SDS011;11798;51.528;7.240;2023-03-23T03:00:37;4.27;;;2.97;;
23258;SDS011;11798;51.528;7.240;2023-03-23T03:03:03;4.57;;;3.20;;
23258;SDS011;11798;51.528;7.240;2023-03-23T03:15:43;4.33;;;3.27;;
23258;SDS011;11798;51.528;7.240;2023-03-23T03:18:32;4.43;;;3.00;;
23258;SDS011;11798;51.528;7.240;2023-03-23T03:21:08;3.63;;;2.40;;
23258;SDS011;11798;51.528;7.240;2023-03-23T03:23:38;3.33;;;2.60;;
23258;SDS011;11798;51.528;7.240;2023-03-23T03:26:06;3.47;;;2.80;;
23258;SDS011;11798;51.528;7.240;2023-03-23T03:28:34;4.50;;;2.67;;
23258;SDS011;11798;51.528;7.240;2023-03-23T03:31:01;4.90;;;2.50;;
23258;SDS011;11798;51.528;7.240;2023-03-23T03:33:29;3.77;;;2.70;;
23258;SDS011;11798;51.528;7.240;2023-03-23T03:36:00;4.07;;;2.90;;
23258;SDS011;11798;51.528;7.240;2023-03-23T03:38:41;3.40;;;2.70;;
23258;SDS011;11798;51.528;7.240;2023-03-23T03:41:11;2.70;;;2.50;;
23258;SDS011;11798;51.528;7.240;2023-03-23T03:43:37;3.20;;;2.40;;
23258;SDS011;11798;51.528;7.240;2023-03-23T03:46:03;3.77;;;2.70;;
23258;SDS011;11798;51.528;7.240;2023-03-23T03:48:29;2.83;;;2.37;;
23258;SDS011;11798;51.528;7.240;2023-03-23T03:50:54;4.03;;;2.37;;
23258;SDS011;11798;51.528;7.240;2023-03-23T03:53:24;4.77;;;2.70;;
23258;SDS011;11798;51.528;7.240;2023-03-23T03:55:50;2.63;;;2.40;;
23258;SDS011;11798;51.528;7.240;2023-03-23T03:58:16;4.20;;;2.30;;
23258;SDS011;11798;51.528;7.240;2023-03-23T04:00:42;4.17;;;2.77;;
23258;SDS011;11798;51.528;7.240;2023-03-23T04:03:08;3.17;;;2.60;;
23258;SDS011;11798;51.528;7.240;2023-03-23T04:05:34;4.03;;;2.33;;
23258;SDS011;11798;51.528;7.240;2023-03-23T04:08:01;3.97;;;2.77;;
23258;SDS011;11798;51.528;7.240;2023-03-23T04:10:28;4.07;;;2.40;;
23258;SDS011;11798;51.528;7.240;2023-03-23T04:12:55;5.60;;;3.10;;
23258;SDS011;11798;51.528;7.240;2023-03-23T04:15:21;3.70;;;2.73;;
23258;SDS011;11798;51.528;7.240;2023-03-23T04:17:47;2.67;;;2.20;;
23258;SDS011;11798;51.528;7.240;2023-03-23T04:20:13;3.67;;;2.57;;
23258;SDS011;11798;51.528;7.240;2023-03-23T04:22:46;3.13;;;2.37;;
23258;SDS011;11798;51.528;7.240;2023-03-23T04:25:14;5.50;;;2.77;;
23258;SDS011;11798;51.528;7.240;2023-03-23T04:27:42;3.27;;;2.50;;
23258;SDS011;11798;51.528;7.240;2023-03-23T04:30:08;3.03;;;2.20;;
23258;SDS011;11798;51.528;7.240;2023-03-23T04:32:38;3.70;;;2.53;;
23258;SDS011;11798;51.528;7.240;2023-03-23T04:35:07;4.13;;;2.70;;
23258;SDS011;11798;51.528;7.240;2023-03-23T04:37:36;5.07;;;2.70;;
23258;SDS011;11798;51.528;7.240;2023-03-23T04:40:02;3.53;;;2.20;;
23258;SDS011;11798;51.528;7.240;2023-03-23T04:42:33;3.70;;;2.43;;
23258;SDS011;11798;51.528;7.240;2023-03-23T04:44:59;2.60;;;2.17;;
23258;SDS011;11798;51.528;7.240;2023-03-23T04:47:26;4.60;;;2.40;;
23258;SDS011;11798;51.528;7.240;2023-03-23T04:49:55;3.30;;;2.40;;
23258;SDS011;11798;51.528;7.240;2023-03-23T04:52:22;4.60;;;2.60;;
23258;SDS011;11798;51.528;7.240;2023-03-23T04:54:50;3.00;;;1.97;;
23258;SDS011;11798;51.528;7.240;2023-03-23T04:57:17;3.70;;;2.10;;
23258;SDS011;11798;51.528;7.240;2023-03-23T04:59:43;5.10;;;2.80;;
23258;SDS011;11798;51.528;7.240;2023-03-23T05:02:09;4.47;;;2.40;;
23258;SDS011;11798;51.528;7.240;2023-03-23T05:04:36;3.97;;;2.27;;
23258;SDS011;11798;51.528;7.240;2023-03-23T05:07:02;3.43;;;2.57;;
23258;SDS011;11798;51.528;7.240;2023-03-23T05:09:28;3.87;;;2.20;;
23258;SDS011;11798;51.528;7.240;2023-03-23T05:11:55;4.27;;;2.20;;
23258;SDS011;11798;51.528;7.240;2023-03-23T05:14:20;3.67;;;2.50;;
23258;SDS011;11798;51.528;7.240;2023-03-23T05:16:46;3.40;;;2.63;;
23258;SDS011;11798;51.528;7.240;2023-03-23T05:19:13;2.73;;;1.90;;
23258;SDS011;11798;51.528;7.240;2023-03-23T05:21:39;2.73;;;2.13;;
23258;SDS011;11798;51.528;7.240;2023-03-23T05:24:05;4.67;;;2.23;;
23258;SDS011;11798;51.528;7.240;2023-03-23T05:26:31;3.63;;;2.37;;
23258;SDS011;11798;51.528;7.240;2023-03-23T05:28:57;3.97;;;2.23;;
23258;SDS011;11798;51.528;7.240;2023-03-23T05:31:24;2.63;;;2.03;;
23258;SDS011;11798;51.528;7.240;2023-03-23T05:33:50;3.40;;;2.20;;
23258;SDS011;11798;51.528;7.240;2023-03-23T05:36:16;3.17;;;2.10;;
23258;SDS011;11798;51.528;7.240;2023-03-23T05:38:42;3.80;;;2.50;;
23258;SDS011;11798;51.528;7.240;2023-03-23T05:41:10;3.50;;;2.10;;
23258;SDS011;11798;51.528;7.240;2023-03-23T05:43:37;3.40;;;2.20;;
23258;SDS011;11798;51.528;7.240;2023-03-23T05:46:03;3.77;;;2.37;;
23258;SDS011;11798;51.528;7.240;2023-03-23T05:48:28;3.87;;;2.43;;
23258;SDS011;11798;51.528;7.240;2023-03-23T05:50:54;3.93;;;2.37;;
23258;SDS011;11798;51.528;7.240;2023-03-23T05:53:21;2.70;;;1.90;;
23258;SDS011;11798;51.528;7.240;2023-03-23T05:55:46;3.67;;;2.07;;
23258;SDS011;11798;51.528;7.240;2023-03-23T05:58:12;4.57;;;2.40;;
23258;SDS011;11798;51.528;7.240;2023-03-23T06:00:38;3.77;;;2.40;;
23258;SDS011;11798;51.528;7.240;2023-03-23T06:03:04;3.50;;;2.63;;
23258;SDS011;11798;51.528;7.240;2023-03-23T06:05:30;2.77;;;2.37;;
23258;SDS011;11798;51.528;7.240;2023-03-23T06:07:57;3.80;;;2.70;;
23258;SDS011;11798;51.528;7.240;2023-03-23T06:10:24;4.43;;;2.80;;
23258;SDS011;11798;51.528;7.240;2023-03-23T06:12:50;3.83;;;2.53;;
23258;SDS011;11798;51.528;7.240;2023-03-23T06:15:16;3.60;;;2.90;;
23258;SDS011;11798;51.528;7.240;2023-03-23T06:17:42;3.60;;;2.73;;
23258;SDS011;11798;51.528;7.240;2023-03-23T06:20:09;3.13;;;2.50;;
23258;SDS011;11798;51.528;7.240;2023-03-23T06:22:39;3.03;;;2.67;;
23258;SDS011;11798;51.528;7.240;2023-03-23T06:25:05;3.40;;;2.70;;
23258;SDS011;11798;51.528;7.240;2023-03-23T06:27:32;4.37;;;2.63;;
23258;SDS011;11798;51.528;7.240;2023-03-23T06:29:58;4.33;;;2.57;;
23258;SDS011;11798;51.528;7.240;2023-03-23T06:32:24;4.90;;;2.70;;
23258;SDS011;11798;51.528;7.240;2023-03-23T06:34:52;6.97;;;2.67;;
23258;SDS011;11798;51.528;7.240;2023-03-23T06:37:17;4.47;;;2.70;;
23258;SDS011;11798;51.528;7.240;2023-03-23T06:39:43;4.77;;;2.53;;
23258;SDS011;11798;51.528;7.240;2023-03-23T06:42:09;5.83;;;2.57;;
23258;SDS011;11798;51.528;7.240;2023-03-23T06:44:38;7.07;;;2.70;;
23258;SDS011;11798;51.528;7.240;2023-03-23T06:47:04;4.90;;;2.87;;
23258;SDS011;11798;51.528;7.240;2023-03-23T06:49:30;4.33;;;2.40;;
23258;SDS011;11798;51.528;7.240;2023-03-23T06:51:56;4.17;;;2.70;;
23258;SDS011;11798;51.528;7.240;2023-03-23T06:54:22;5.20;;;3.10;;
23258;SDS011;11798;51.528;7.240;2023-03-23T06:56:48;4.47;;;2.60;;
23258;SDS011;11798;51.528;7.240;2023-03-23T06:59:14;6.00;;;2.77;;
23258;SDS011;11798;51.528;7.240;2023-03-23T07:01:40;5.37;;;2.60;;
23258;SDS011;11798;51.528;7.240;2023-03-23T07:04:05;3.37;;;2.77;;
23258;SDS011;11798;51.528;7.240;2023-03-23T07:06:31;5.73;;;3.27;;
23258;SDS011;11798;51.528;7.240;2023-03-23T07:08:57;6.70;;;2.97;;
23258;SDS011;11798;51.528;7.240;2023-03-23T07:11:23;7.40;;;2.57;;
23258;SDS011;11798;51.528;7.240;2023-03-23T07:13:50;4.50;;;2.87;;
23258;SDS011;11798;51.528;7.240;2023-03-23T07:16:16;6.20;;;2.47;;
23258;SDS011;11798;51.528;7.240;2023-03-23T07:18:42;3.97;;;2.43;;
23258;SDS011;11798;51.528;7.240;2023-03-23T07:21:08;6.63;;;2.80;;
23258;SDS011;11798;51.528;7.240;2023-03-23T07:23:35;5.73;;;2.30;;
23258;SDS011;11798;51.528;7.240;2023-03-23T07:26:01;6.17;;;2.40;;
23258;SDS011;11798;51.528;7.240;2023-03-23T07:28:28;4.87;;;2.63;;
23258;SDS011;11798;51.528;7.240;2023-03-23T07:30:55;4.87;;;2.73;;
23258;SDS011;11798;51.528;7.240;2023-03-23T07:33:20;4.37;;;2.17;;
23258;SDS011;11798;51.528;7.240;2023-03-23T07:35:47;7.00;;;2.97;;
23258;SDS011;11798;51.528;7.240;2023-03-23T07:38:13;5.87;;;2.83;;
23258;SDS011;11798;51.528;7.240;2023-03-23T07:40:39;5.27;;;2.17;;
23258;SDS011;11798;51.528;7.240;2023-03-23T07:43:05;4.40;;;2.40;;
23258;SDS011;11798;51.528;7.240;2023-03-23T07:45:32;4.57;;;2.10;;
23258;SDS011;11798;51.528;7.240;2023-03-23T07:47:58;5.03;;;2.17;;
23258;SDS011;11798;51.528;7.240;2023-03-23T07:50:24;4.33;;;2.47;;
23258;SDS011;11798;51.528;7.240;2023-03-23T07:52:51;5.80;;;2.27;;
23258;SDS011;11798;51.528;7.240;2023-03-23T07:55:19;5.60;;;2.30;;
23258;SDS011;11798;51.528;7.240;2023-03-23T07:57:48;4.70;;;2.43;;
23258;SDS011;11798;51.528;7.240;2023-03-23T08:00:14;3.43;;;1.80;;
23258;SDS011;11798;51.528;7.240;2023-03-23T08:02:45;4.60;;;1.83;;
23258;SDS011;11798;51.528;7.240;2023-03-23T08:05:12;3.67;;;2.00;;
23258;SDS011;11798;51.528;7.240;2023-03-23T08:07:38;6.63;;;2.33;;
23258;SDS011;11798;51.528;7.240;2023-03-23T08:10:05;4.40;;;2.17;;
23258;SDS011;11798;51.528;7.240;2023-03-23T08:12:35;5.77;;;2.30;;
23258;SDS011;11798;51.528;7.240;2023-03-23T08:15:00;4.60;;;2.00;;
23258;SDS011;11798;51.528;7.240;2023-03-23T08:17:26;5.73;;;2.37;;
23258;SDS011;11798;51.528;7.240;2023-03-23T08:19:52;3.03;;;1.87;;
23258;SDS011;11798;51.528;7.240;2023-03-23T08:22:18;4.07;;;1.60;;
23258;SDS011;11798;51.528;7.240;2023-03-23T08:24:44;4.10;;;1.70;;
23258;SDS011;11798;51.528;7.240;2023-03-23T08:27:10;3.97;;;2.20;;
23258;SDS011;11798;51.528;7.240;2023-03-23T08:29:35;5.07;;;2.07;;
23258;SDS011;11798;51.528;7.240;2023-03-23T08:32:01;4.33;;;1.77;;
23258;SDS011;11798;51.528;7.240;2023-03-23T08:34:28;6.13;;;2.00;;
23258;SDS011;11798;51.528;7.240;2023-03-23T08:36:55;6.47;;;1.90;;
23258;SDS011;11798;51.528;7.240;2023-03-23T08:39:21;5.83;;;2.00;;
23258;SDS011;11798;51.528;7.240;2023-03-23T08:41:48;6.17;;;2.20;;
23258;SDS011;11798;51.528;7.240;2023-03-23T08:44:14;4.73;;;1.90;;
23258;SDS011;11798;51.528;7.240;2023-03-23T08:46:40;5.37;;;2.40;;
23258;SDS011;11798;51.528;7.240;2023-03-23T08:49:06;5.03;;;1.73;;
23258;SDS011;11798;51.528;7.240;2023-03-23T08:51:32;5.63;;;1.80;;
23258;SDS011;11798;51.528;7.240;2023-03-23T08:53:58;4.17;;;2.03;;
23258;SDS011;11798;51.528;7.240;2023-03-23T08:56:24;4.90;;;2.00;;
23258;SDS011;11798;51.528;7.240;2023-03-23T08:58:51;6.27;;;2.43;;
23258;SDS011;11798;51.528;7.240;2023-03-23T09:01:16;4.33;;;2.00;;
23258;SDS011;11798;51.528;7.240;2023-03-23T09:03:42;3.50;;;1.67;;
23258;SDS011;11798;51.528;7.240;2023-03-23T09:06:08;4.57;;;2.10;;
23258;SDS011;11798;51.528;7.240;2023-03-23T09:08:37;8.53;;;2.17;;
23258;SDS011;11798;51.528;7.240;2023-03-23T09:11:07;5.23;;;1.93;;
23258;SDS011;11798;51.528;7.240;2023-03-23T09:13:35;4.43;;;1.80;;
23258;SDS011;11798;51.528;7.240;2023-03-23T09:16:02;8.43;;;2.10;;
23258;SDS011;11798;51.528;7.240;2023-03-23T09:18:29;5.83;;;2.40;;
23258;SDS011;11798;51.528;7.240;2023-03-23T09:20:57;3.60;;;1.70;;
23258;SDS011;11798;51.528;7.240;2023-03-23T09:23:24;6.40;;;2.40;;
23258;SDS011;11798;51.528;7.240;2023-03-23T09:25:50;7.03;;;2.13;;
23258;SDS011;11798;51.528;7.240;2023-03-23T09:28:17;10.23;;;2.50;;
23258;SDS011;11798;51.528;7.240;2023-03-23T09:30:43;7.70;;;2.20;;
23258;SDS011;11798;51.528;7.240;2023-03-23T09:33:13;8.83;;;2.17;;
23258;SDS011;11798;51.528;7.240;2023-03-23T09:35:40;6.63;;;2.43;;
23258;SDS011;11798;51.528;7.240;2023-03-23T09:38:08;4.83;;;1.77;;
23258;SDS011;11798;51.528;7.240;2023-03-23T09:40:47;5.43;;;1.83;;
23258;SDS011;11798;51.528;7.240;2023-03-23T09:53:51;8.43;;;2.27;;
23258;SDS011;11798;51.528;7.240;2023-03-23T09:56:20;6.50;;;2.23;;
23258;SDS011;11798;51.528;7.240;2023-03-23T09:59:00;9.03;;;2.20;;
23258;SDS011;11798;51.528;7.240;2023-03-23T10:01:36;9.10;;;2.40;;
23258;SDS011;11798;51.528;7.240;2023-03-23T10:04:14;5.37;;;2.40;;
23258;SDS011;11798;51.528;7.240;2023-03-23T10:06:50;5.97;;;2.30;;
23258;SDS011;11798;51.528;7.240;2023-03-23T10:09:16;8.47;;;2.43;;
23258;SDS011;11798;51.528;7.240;2023-03-23T10:17:23;9.20;;;2.10;;
23258;SDS011;11798;51.528;7.240;2023-03-23T10:25:28;6.67;;;2.13;;
23258;SDS011;11798;51.528;7.240;2023-03-23T10:27:59;6.07;;;1.60;;
23258;SDS011;11798;51.528;7.240;2023-03-23T10:30:39;10.03;;;2.27;;
23258;SDS011;11798;51.528;7.240;2023-03-23T10:33:25;6.97;;;2.10;;
23258;SDS011;11798;51.528;7.240;2023-03-23T10:38:43;5.13;;;2.13;;
23258;SDS011;11798;51.528;7.240;2023-03-23T10:41:13;8.27;;;2.80;;
23258;SDS011;11798;51.528;7.240;2023-03-23T10:43:41;9.20;;;2.47;;
23258;SDS011;11798;51.528;7.240;2023-03-23T10:48:59;6.50;;;2.37;;
23258;SDS011;11798;51.528;7.240;2023-03-23T10:51:32;9.87;;;2.27;;
23258;SDS011;11798;51.528;7.240;2023-03-23T10:54:01;4.40;;;1.97;;
23258;SDS011;11798;51.528;7.240;2023-03-23T10:56:39;9.63;;;2.30;;
23258;SDS011;11798;51.528;7.240;2023-03-23T10:59:27;5.57;;;1.80;;
23258;SDS011;11798;51.528;7.240;2023-03-23T11:01:58;4.77;;;1.60;;
23258;SDS011;11798;51.528;7.240;2023-03-23T11:04:28;3.57;;;1.27;;
23258;SDS011;11798;51.528;7.240;2023-03-23T11:06:58;5.30;;;1.50;;
23258;SDS011;11798;51.528;7.240;2023-03-23T11:09:36;4.33;;;1.40;;
23258;SDS011;11798;51.528;7.240;2023-03-23T11:12:03;3.90;;;1.43;;
23258;SDS011;11798;51.528;7.240;2023-03-23T11:14:40;5.20;;;1.30;;
23258;SDS011;11798;51.528;7.240;2023-03-23T11:17:19;3.20;;;1.60;;
23258;SDS011;11798;51.528;7.240;2023-03-23T11:19:49;4.70;;;1.60;;
23258;SDS011;11798;51.528;7.240;2023-03-23T11:22:26;5.60;;;1.77;;
23258;SDS011;11798;51.528;7.240;2023-03-23T11:24:54;3.80;;;1.60;;
23258;SDS011;11798;51.528;7.240;2023-03-23T11:27:22;5.23;;;1.63;;
23258;SDS011;11798;51.528;7.240;2023-03-23T11:32:15;4.83;;;1.93;;
23258;SDS011;11798;51.528;7.240;2023-03-23T11:34:46;6.27;;;2.03;;
23258;SDS011;11798;51.528;7.240;2023-03-23T11:37:15;5.40;;;1.73;;
23258;SDS011;11798;51.528;7.240;2023-03-23T11:42:24;4.60;;;1.80;;
23258;SDS011;11798;51.528;7.240;2023-03-23T11:44:53;4.47;;;1.50;;
23258;SDS011;11798;51.528;7.240;2023-03-23T11:52:37;4.57;;;2.00;;
23258;SDS011;11798;51.528;7.240;2023-03-23T11:55:32;3.73;;;2.00;;
23258;SDS011;11798;51.528;7.240;2023-03-23T11:58:18;5.37;;;2.00;;
23258;SDS011;11798;51.528;7.240;2023-03-23T12:00:49;4.83;;;2.80;;
23258;SDS011;11798;51.528;7.240;2023-03-23T12:03:31;4.63;;;2.73;;
23258;SDS011;11798;51.528;7.240;2023-03-23T12:06:24;7.97;;;3.50;;
23258;SDS011;11798;51.528;7.240;2023-03-23T12:09:22;8.07;;;4.23;;
23258;SDS011;11798;51.528;7.240;2023-03-23T12:17:38;9.23;;;6.30;;
23258;SDS011;11798;51.528;7.240;2023-03-23T12:23:24;6.87;;;5.17;;
23258;SDS011;11798;51.528;7.240;2023-03-23T12:26:19;9.67;;;5.00;;
23258;SDS011;11798;51.528;7.240;2023-03-23T12:31:40;10.03;;;4.30;;
23258;SDS011;11798;51.528;7.240;2023-03-23T12:42:02;4.93;;;2.77;;
23258;SDS011;11798;51.528;7.240;2023-03-23T12:45:01;6.57;;;2.80;;
23258;SDS011;11798;51.528;7.240;2023-03-23T12:47:46;4.43;;;3.43;;
23258;SDS011;11798;51.528;7.240;2023-03-23T12:53:02;4.57;;;3.00;;
23258;SDS011;11798;51.528;7.240;2023-03-23T12:55:39;6.00;;;3.60;;
23258;SDS011;11798;51.528;7.240;2023-03-23T12:58:10;3.90;;;3.10;;
23258;SDS011;11798;51.528;7.240;2023-03-23T13:00:59;3.83;;;2.90;;
23258;SDS011;11798;51.528;7.240;2023-03-23T13:03:53;6.60;;;2.97;;
23258;SDS011;11798;51.528;7.240;2023-03-23T13:06:34;3.23;;;2.00;;
23258;SDS011;11798;51.528;7.240;2023-03-23T13:09:03;3.53;;;2.20;;
23258;SDS011;11798;51.528;7.240;2023-03-23T13:11:37;6.70;;;2.50;;
23258;SDS011;11798;51.528;7.240;2023-03-23T13:22:33;4.00;;;2.77;;
23258;SDS011;11798;51.528;7.240;2023-03-23T13:25:02;7.60;;;2.77;;
23258;SDS011;11798;51.528;7.240;2023-03-23T13:27:55;4.97;;;2.40;;
23258;SDS011;11798;51.528;7.240;2023-03-23T13:30:25;5.10;;;2.13;;
23258;SDS011;11798;51.528;7.240;2023-03-23T13:33:00;2.80;;;1.90;;
23258;SDS011;11798;51.528;7.240;2023-03-23T13:35:35;3.30;;;2.20;;
23258;SDS011;11798;51.528;7.240;2023-03-23T13:38:10;4.77;;;2.53;;
23258;SDS011;11798;51.528;7.240;2023-03-23T13:40:49;6.17;;;2.20;;
23258;SDS011;11798;51.528;7.240;2023-03-23T13:43:29;5.43;;;2.60;;
23258;SDS011;11798;51.528;7.240;2023-03-23T13:57:24;4.00;;;2.00;;
23258;SDS011;11798;51.528;7.240;2023-03-23T14:00:10;7.53;;;2.70;;
23258;SDS011;11798;51.528;7.240;2023-03-23T14:05:39;7.90;;;2.60;;
23258;SDS011;11798;51.528;7.240;2023-03-23T14:13:16;7.13;;;2.20;;
23258;SDS011;11798;51.528;7.240;2023-03-23T14:15:55;6.20;;;2.70;;
23258;SDS011;11798;51.528;7.240;2023-03-23T14:18:31;9.80;;;2.30;;
23258;SDS011;11798;51.528;7.240;2023-03-23T14:21:00;7.90;;;2.80;;
23258;SDS011;11798;51.528;7.240;2023-03-23T14:23:27;6.83;;;2.90;;
23258;SDS011;11798;51.528;7.240;2023-03-23T14:26:06;9.90;;;2.93;;
23258;SDS011;11798;51.528;7.240;2023-03-23T14:28:42;5.07;;;2.97;;
23258;SDS011;11798;51.528;7.240;2023-03-23T14:31:14;5.00;;;2.83;;
23258;SDS011;11798;51.528;7.240;2023-03-23T14:33:43;7.73;;;3.53;;
23258;SDS011;11798;51.528;7.240;2023-03-23T14:36:09;8.27;;;3.20;;
23258;SDS011;11798;51.528;7.240;2023-03-23T14:38:35;7.03;;;3.23;;
23258;SDS011;11798;51.528;7.240;2023-03-23T14:41:02;5.60;;;3.40;;
23258;SDS011;11798;51.528;7.240;2023-03-23T14:43:29;6.77;;;3.40;;
23258;SDS011;11798;51.528;7.240;2023-03-23T14:45:59;7.70;;;3.37;;
23258;SDS011;11798;51.528;7.240;2023-03-23T14:48:27;6.10;;;3.80;;
23258;SDS011;11798;51.528;7.240;2023-03-23T14:53:37;8.40;;;3.97;;
23258;SDS011;11798;51.528;7.240;2023-03-23T14:58:45;8.07;;;4.40;;
23258;SDS011;11798;51.528;7.240;2023-03-23T15:01:13;6.33;;;4.87;;
23258;SDS011;11798;51.528;7.240;2023-03-23T15:06:33;7.30;;;5.13;;
23258;SDS011;11798;51.528;7.240;2023-03-23T15:09:02;6.10;;;4.87;;
23258;SDS011;11798;51.528;7.240;2023-03-23T15:11:36;8.23;;;5.70;;
23258;SDS011;11798;51.528;7.240;2023-03-23T15:17:09;7.83;;;4.57;;
23258;SDS011;11798;51.528;7.240;2023-03-23T15:19:43;6.50;;;4.60;;
23258;SDS011;11798;51.528;7.240;2023-03-23T15:24:46;6.63;;;4.37;;
23258;SDS011;11798;51.528;7.240;2023-03-23T15:27:16;5.80;;;3.60;;
23258;SDS011;11798;51.528;7.240;2023-03-23T15:29:56;9.00;;;3.93;;
23258;SDS011;11798;51.528;7.240;2023-03-23T15:32:27;4.50;;;2.80;;
23258;SDS011;11798;51.528;7.240;2023-03-23T15:34:55;6.07;;;2.93;;
23258;SDS011;11798;51.528;7.240;2023-03-23T15:37:27;3.93;;;2.40;;
23258;SDS011;11798;51.528;7.240;2023-03-23T15:39:55;6.77;;;2.97;;
23258;SDS011;11798;51.528;7.240;2023-03-23T15:42:26;5.77;;;2.50;;
23258;SDS011;11798;51.528;7.240;2023-03-23T15:45:05;5.23;;;2.40;;
23258;SDS011;11798;51.528;7.240;2023-03-23T15:52:40;5.63;;;2.33;;
23258;SDS011;11798;51.528;7.240;2023-03-23T15:55:40;7.43;;;2.13;;
23258;SDS011;11798;51.528;7.240;2023-03-23T15:58:10;5.67;;;2.03;;
23258;SDS011;11798;51.528;7.240;2023-03-23T16:00:37;4.00;;;1.93;;
23258;SDS011;11798;51.528;7.240;2023-03-23T16:03:04;5.03;;;2.00;;
23258;SDS011;11798;51.528;7.240;2023-03-23T16:05:33;6.63;;;1.97;;
23258;SDS011;11798;51.528;7.240;2023-03-23T16:07:59;4.63;;;1.93;;
23258;SDS011;11798;51.528;7.240;2023-03-23T16:10:25;6.10;;;2.30;;
23258;SDS011;11798;51.528;7.240;2023-03-23T16:12:52;7.17;;;2.20;;
23258;SDS011;11798;51.528;7.240;2023-03-23T16:15:18;3.97;;;1.80;;
23258;SDS011;11798;51.528;7.240;2023-03-23T16:17:44;3.13;;;1.73;;
23258;SDS011;11798;51.528;7.240;2023-03-23T16:20:21;5.27;;;1.73;;
23258;SDS011;11798;51.528;7.240;2023-03-23T16:22:48;5.67;;;2.33;;
23258;SDS011;11798;51.528;7.240;2023-03-23T16:25:15;3.73;;;1.70;;
23258;SDS011;11798;51.528;7.240;2023-03-23T16:27:43;5.87;;;2.10;;
23258;SDS011;11798;51.528;7.240;2023-03-23T16:32:41;4.47;;;2.43;;
23258;SDS011;11798;51.528;7.240;2023-03-23T16:35:07;6.03;;;2.20;;
23258;SDS011;11798;51.528;7.240;2023-03-23T16:37:33;6.60;;;2.07;;
23258;SDS011;11798;51.528;7.240;2023-03-23T16:39:59;5.07;;;2.70;;
23258;SDS011;11798;51.528;7.240;2023-03-23T16:42:26;6.27;;;2.53;;
23258;SDS011;11798;51.528;7.240;2023-03-23T16:44:51;6.17;;;2.67;;
23258;SDS011;11798;51.528;7.240;2023-03-23T16:47:18;7.67;;;2.67;;
23258;SDS011;11798;51.528;7.240;2023-03-23T16:49:49;3.37;;;2.33;;
23258;SDS011;11798;51.528;7.240;2023-03-23T16:52:15;6.90;;;3.13;;
23258;SDS011;11798;51.528;7.240;2023-03-23T16:54:42;6.63;;;2.63;;
23258;SDS011;11798;51.528;7.240;2023-03-23T16:57:08;7.03;;;2.80;;
23258;SDS011;11798;51.528;7.240;2023-03-23T16:59:33;8.77;;;2.90;;
23258;SDS011;11798;51.528;7.240;2023-03-23T17:01:59;8.00;;;3.00;;
23258;SDS011;11798;51.528;7.240;2023-03-23T17:04:31;6.93;;;2.83;;
23258;SDS011;11798;51.528;7.240;2023-03-23T17:06:57;5.47;;;2.47;;
23258;SDS011;11798;51.528;7.240;2023-03-23T17:09:24;6.80;;;2.60;;
23258;SDS011;11798;51.528;7.240;2023-03-23T17:11:50;6.73;;;2.90;;
23258;SDS011;11798;51.528;7.240;2023-03-23T17:14:16;7.47;;;2.73;;
23258;SDS011;11798;51.528;7.240;2023-03-23T17:16:42;7.07;;;2.30;;
23258;SDS011;11798;51.528;7.240;2023-03-23T17:19:08;5.97;;;2.47;;